Time;durP1;ratioP1;P1;durP2;ratioP2;P2;SDS_P1;SDS_P2;PMS_P1;PMS_P2;Temp;Humidity;BMP_temperature;BMP_pressure;BME280_temperature;BME280_humidity;BME280_pressure;Samples;Min_cycle;Max_cycle;Signal;HPM_P1;HPM_P2
2022/06/18 00:06:03;;;;;;;1.20;0.63;;;;;;;;;;20631002;28;20249;-72
2022/06/18 00:16:05;;;;;;;0.50;0.30;;;;;;;;;;20629521;28;20262;-73
2022/06/18 00:26:07;;;;;;;0.43;0.32;;;;;;;;;;20637196;28;20226;-73
2022/06/18 00:36:17;;;;;;;0.57;0.38;;;25.10;88.70;;;;;;20636335;28;20234;-72
2022/06/18 00:46:20;;;;;;;1.65;0.40;;;;;;;;;;20649930;28;20228;-72
2022/06/18 00:56:53;;;;;;;0.82;0.45;;;24.80;93.60;;;;;;20598462;28;20281;-72
2022/06/18 01:07:15;;;;;;;0.88;0.45;;;24.60;93.20;;;;;;20600792;28;20277;-76
2022/06/18 01:17:18;;;;;;;1.23;0.47;;;;;;;;;;20592870;28;20226;-77
2022/06/18 01:27:20;;;;;;;0.50;0.40;;;;;;;;;;20569414;28;20732;-72
2022/06/18 01:37:24;;;;;;;0.40;0.32;;;;;;;;;;20568591;28;20222;-72
2022/06/18 01:47:29;;;;;;;1.08;0.43;;;;;;;;;;20567713;28;20250;-72
2022/06/18 01:57:35;;;;;;;0.90;0.45;;;23.80;95.20;;;;;;20563877;28;20292;-72
2022/06/18 02:07:38;;;;;;;0.80;0.50;;;;;;;;;;20550733;28;20219;-72
2022/06/18 02:17:41;;;;;;;1.40;0.57;;;23.80;94.40;;;;;;20565288;28;20769;-72
2022/06/18 02:27:44;;;;;;;0.80;0.50;;;24.00;88.30;;;;;;20563781;28;20226;-72
2022/06/18 02:37:48;;;;;;;0.90;0.50;;;23.70;90.30;;;;;;20547946;28;20271;-72
2022/06/18 02:47:52;;;;;;;0.90;0.40;;;;;;;;;;20562935;28;20254;-72
2022/06/18 02:58:18;;;;;;;2.03;0.65;;;23.40;94.40;;;;;;20562439;28;20715;-72
2022/06/18 03:08:22;;;;;;;2.60;0.55;;;23.30;97.00;;;;;;20565535;28;20214;-72
2022/06/18 03:18:26;;;;;;;2.03;0.40;;;;;;;;;;20757719;23;20232;-73
2022/06/18 03:28:28;;;;;;;0.55;0.55;;;;;;;;;;20828946;28;20458;-72
2022/06/18 03:38:30;;;;;;;0.82;0.50;;;;;;;;;;20825218;28;20760;-72
2022/06/18 03:48:35;;;;;;;1.27;0.52;;;;;;;;;;20830017;28;20212;-73
2022/06/18 03:58:38;;;;;;;1.35;0.60;;;22.70;97.40;;;;;;20832515;28;20584;-73
2022/06/18 04:08:40;;;;;;;3.22;0.77;;;;;;;;;;20821854;28;20222;-73
2022/06/18 04:18:53;;;;;;;0.90;0.50;;;;;;;;;;20827675;28;20223;-72
2022/06/18 04:28:55;;;;;;;2.25;0.70;;;;;;;;;;20825148;28;20532;-72
2022/06/18 04:38:57;;;;;;;0.90;0.60;;;22.80;97.60;;;;;;20827988;28;20218;-72
2022/06/18 04:49:38;;;;;;;0.70;0.50;;;;;;;;;;20708629;28;20215;-72
2022/06/18 04:59:42;;;;;;;1.10;0.70;;;;;;;;;;20817610;28;20264;-73
2022/06/18 05:09:45;;;;;;;0.85;0.60;;;;;;;;;;20827041;28;20270;-72
2022/06/18 05:19:56;;;;;;;2.55;1.00;;;;;;;;;;20804680;28;20611;-71
2022/06/18 05:29:58;;;;;;;1.33;0.80;;;;;;;;;;20821988;28;20598;-74
2022/06/18 05:40:12;;;;;;;1.40;0.77;;;;;;;;;;20818961;28;20217;-75
2022/06/18 05:50:18;;;;;;;0.88;0.60;;;22.80;99.90;;;;;;20800446;28;20240;-72
2022/06/18 06:00:23;;;;;;;0.80;0.60;;;23.10;99.90;;;;;;20832606;28;20216;-72
2022/06/18 06:20:54;;;;;;;1.42;0.60;;;;;;;;;;20820353;28;20236;-73
2022/06/18 06:30:58;;;;;;;1.33;0.60;;;;;;;;;;20818497;28;20697;-73
2022/06/18 06:41:00;;;;;;;1.52;0.65;;;;;;;;;;20820620;28;20225;-73
2022/06/18 06:51:02;;;;;;;0.77;0.50;;;;;;;;;;20817593;28;20603;-73
2022/06/18 07:01:04;;;;;;;1.35;0.63;;;;;;;;;;20819377;28;20200;-74
2022/06/18 07:11:06;;;;;;;2.15;0.68;;;;;;;;;;20833744;28;20277;-74
2022/06/18 07:21:15;;;;;;;1.15;0.68;;;;;;;;;;20818643;28;20210;-73
2022/06/18 07:31:24;;;;;;;0.98;0.70;;;;;;;;;;20819503;28;20207;-74
2022/06/18 07:41:30;;;;;;;1.35;0.80;;;;;;;;;;20816906;28;20205;-75
2022/06/18 07:51:32;;;;;;;0.80;0.70;;;;;;;;;;20816918;28;20233;-75
2022/06/18 08:01:34;;;;;;;1.88;0.98;;;;;;;;;;20831438;28;20259;-74
2022/06/18 08:11:38;;;;;;;0.73;0.63;;;26.10;98.20;;;;;;20828718;28;20271;-76
2022/06/18 08:21:43;;;;;;;1.35;0.70;;;26.40;99.90;;;;;;20829570;28;20229;-76
2022/06/18 08:31:46;;;;;;;1.50;0.73;;;26.60;97.10;;;;;;20828814;28;20271;-76
2022/06/18 08:42:03;;;;;;;1.15;0.70;;;;;;;;;;20827901;28;20230;-76
2022/06/18 08:52:24;;;;;;;1.85;0.70;;;;;;;;;;20826293;28;20235;-76
2022/06/18 09:02:32;;;;;;;1.25;0.70;;;;;;;;;;20827613;28;20818;-74
2022/06/18 09:12:38;;;;;;;0.98;0.63;;;;;;;;;;20840976;23;20639;-75
2022/06/18 09:22:54;;;;;;;3.95;2.38;;;28.20;91.10;;;;;;20822124;28;20217;-73
2022/06/18 09:33:01;;;;;;;1.33;0.93;;;28.60;90.50;;;;;;20825970;28;20216;-73
2022/06/18 09:43:27;;;;;;;0.73;0.50;;;28.90;85.80;;;;;;20825226;28;20213;-74
2022/06/18 09:53:35;;;;;;;2.80;0.82;;;;;;;;;;20822847;28;20263;-75
2022/06/18 10:14:03;;;;;;;0.47;0.35;;;;;;;;;;20822062;28;20268;-75
2022/06/18 10:24:09;;;;;;;1.00;0.40;;;;;;;;;;20825464;28;20252;-74
2022/06/18 10:34:10;;;;;;;0.47;0.40;;;;;;;;;;20825045;28;20222;-76
2022/06/18 10:44:22;;;;;;;0.55;0.50;;;;;;;;;;20820819;28;20300;-76
2022/06/18 10:54:29;;;;;;;0.82;0.50;;;;;;;;;;20822294;28;20217;-75
2022/06/18 11:04:31;;;;;;;1.83;0.55;;;;;;;;;;20817389;28;20207;-75
2022/06/18 11:14:39;;;;;;;2.63;0.60;;;;;;;;;;20819493;28;20218;-75
2022/06/18 11:24:43;;;;;;;1.45;0.30;;;31.30;74.80;;;;;;20821313;28;20593;-75
2022/06/18 11:34:48;;;;;;;1.98;0.68;;;;;;;;;;20832464;28;20218;-72
2022/06/18 11:44:58;;;;;;;2.05;0.52;;;;;;;;;;20752148;28;20250;-72
2022/06/18 11:55:09;;;;;;;1.58;0.50;;;32.10;71.00;;;;;;20751423;28;20703;-73
2022/06/18 12:05:32;;;;;;;1.38;0.65;;;32.30;71.00;;;;;;20739372;28;20701;-74
2022/06/18 12:15:57;;;;;;;0.90;0.50;;;;;;;;;;20829426;28;20272;-72
2022/06/18 12:26:15;;;;;;;2.00;0.50;;;32.70;54.20;;;;;;20795054;28;20268;-73
2022/06/18 12:36:17;;;;;;;3.42;0.70;;;;;;;;;;20764607;28;20265;-72
2022/06/18 12:46:27;;;;;;;3.10;0.60;;;32.90;51.40;;;;;;20828859;28;20623;-73
2022/06/18 12:56:39;;;;;;;1.67;0.55;;;;;;;;;;20841225;28;20236;-72
2022/06/18 13:07:08;;;;;;;2.45;0.82;;;33.50;50.60;;;;;;20839737;28;20277;-71
2022/06/18 13:17:39;;;;;;;2.45;0.90;;;;;;;;;;20818004;28;20280;-72
2022/06/18 13:38:20;;;;;;;4.78;1.05;;;;;;;;;;20823541;28;20296;-74
2022/06/18 13:48:24;;;;;;;4.55;0.98;;;;;;;;;;20806294;28;20215;-72
2022/06/18 13:58:28;;;;;;;4.43;0.80;;;;;;;;;;20820218;28;20210;-72
2022/06/18 14:08:32;;;;;;;2.05;0.60;;;;;;;;;;20822680;28;20191;-71
2022/06/18 14:18:34;;;;;;;2.05;0.88;;;;;;;;;;20804422;28;20273;-72
2022/06/18 14:28:38;;;;;;;3.78;0.70;;;;;;;;;;20807917;28;20280;-72
2022/06/18 14:38:56;;;;;;;1.80;0.70;;;34.60;58.60;;;;;;20800144;28;20254;-73
2022/06/18 14:49:10;;;;;;;2.65;0.93;;;;;;;;;;20803459;28;20249;-72
2022/06/18 14:59:34;;;;;;;2.10;0.80;;;;;;;;;;20830489;28;20241;-74
2022/06/18 15:09:37;;;;;;;5.50;1.13;;;;;;;;;;20824155;28;20671;-72
2022/06/18 15:19:44;;;;;;;1.48;0.82;;;;;;;;;;20817249;22;20710;-73
2022/06/18 17:37:27;;;;;;;4.30;1.05;;;33.10;68.60;;;;;;21290748;27;20564;-71
2022/06/18 17:47:30;;;;;;;2.55;0.98;;;;;;;;;;21169780;28;20196;-71
2022/06/18 17:57:32;;;;;;;3.72;1.55;;;;;;;;;;21157926;28;20268;-70
2022/06/18 18:07:34;;;;;;;3.58;1.10;;;;;;;;;;21151254;28;20759;-71
2022/06/18 18:17:36;;;;;;;4.60;1.63;;;;;;;;;;21154317;28;20631;-74
2022/06/18 18:27:39;;;;;;;2.70;0.85;;;33.70;72.00;;;;;;21106901;28;20204;-74
2022/06/18 18:37:42;;;;;;;3.30;1.20;;;;;;;;;;21073570;28;20219;-73
2022/06/18 18:47:44;;;;;;;3.47;0.90;;;;;;;;;;21055830;28;20193;-73
2022/06/18 18:57:46;;;;;;;3.28;1.10;;;;;;;;;;21049164;28;20197;-73
2022/06/18 19:07:48;;;;;;;2.30;0.95;;;;;;;;;;21048200;28;20204;-74
2022/06/18 19:17:50;;;;;;;5.32;1.75;;;;;;;;;;21069320;28;20268;-75
2022/06/18 19:27:52;;;;;;;5.78;1.42;;;;;;;;;;21064755;28;20228;-69
2022/06/18 19:49:52;;;;;;;2.13;0.93;;;;;;;;;;21130414;27;20579;-73
2022/06/18 19:59:54;;;;;;;3.63;1.25;;;;;;;;;;20979621;28;20239;-72
2022/06/18 20:09:56;;;;;;;4.82;1.13;;;;;;;;;;20986910;28;20270;-71
2022/06/18 20:19:58;;;;;;;3.03;1.08;;;;;;;;;;21022587;28;20599;-72
2022/06/18 20:30:01;;;;;;;4.35;1.50;;;;;;;;;;21029528;28;20255;-70
2022/06/18 20:40:03;;;;;;;3.10;1.30;;;;;;;;;;20962640;28;20205;-71
2022/06/18 20:50:06;;;;;;;5.72;1.30;;;31.60;81.60;;;;;;21019245;28;20221;-71
2022/06/18 21:00:09;;;;;;;3.92;1.20;;;;;;;;;;20988485;28;20225;-70
2022/06/18 21:10:12;;;;;;;5.95;1.52;;;;;;;;;;20998657;28;20933;-70
2022/06/18 21:20:16;;;;;;;4.95;1.42;;;;;;;;;;21019213;22;20224;-72
2022/06/18 21:30:18;;;;;;;4.78;1.42;;;;;;;;;;21047347;28;20266;-72
2022/06/18 21:40:20;;;;;;;3.20;1.33;;;;;;;;;;21046112;28;20772;-74
2022/06/18 21:50:26;;;;;;;3.33;1.48;;;;;;;;;;21029072;28;20270;-73
2022/06/18 22:00:34;;;;;;;2.88;1.15;;;30.40;80.20;;;;;;21061364;28;20254;-74
2022/06/18 22:10:37;;;;;;;2.53;1.25;;;;;;;;;;21046263;28;20262;-74
2022/06/18 22:20:39;;;;;;;5.97;1.40;;;30.40;89.90;;;;;;21044283;28;20715;-74
2022/06/18 22:30:41;;;;;;;5.22;1.95;;;;;;;;;;21042684;28;20270;-76
2022/06/18 22:40:44;;;;;;;4.80;1.85;;;29.80;89.40;;;;;;21034460;28;20233;-76
2022/06/18 22:50:47;;;;;;;3.17;1.30;;;;;;;;;;21024451;28;20212;-76
2022/06/18 23:00:49;;;;;;;5.53;1.40;;;;;;;;;;21040692;28;20221;-76
2022/06/18 23:10:51;;;;;;;6.78;1.70;;;;;;;;;;21023202;28;20216;-76
2022/06/18 23:20:54;;;;;;;3.35;1.40;;;29.40;88.60;;;;;;21039280;28;20610;-75
2022/06/18 23:30:58;;;;;;;4.32;1.58;;;;;;;;;;21039219;28;20285;-75
2022/06/18 23:41:00;;;;;;;6.32;1.80;;;29.10;84.40;;;;;;21021367;28;20212;-75
2022/06/18 23:51:03;;;;;;;3.63;1.27;;;;;;;;;;21054175;28;20208;-77
